sensor_id;sensor_type;location;lat;lon;timestamp;P1;P2;P0
70520;PMS5003;58442;52.716;23.560;2023-04-08T00:00:39;26;25;15
70520;PMS5003;58442;52.716;23.560;2023-04-08T00:02:45;40;33;18
70520;PMS5003;58442;52.716;23.560;2023-04-08T00:04:51;37;33;18
70520;PMS5003;58442;52.716;23.560;2023-04-08T00:06:53;29;26;16
70520;PMS5003;58442;52.716;23.560;2023-04-08T00:08:54;33;29;19
70520;PMS5003;58442;52.716;23.560;2023-04-08T00:10:55;47;39;21
70520;PMS5003;58442;52.716;23.560;2023-04-08T00:13:06;44;36;22
70520;PMS5003;58442;52.716;23.560;2023-04-08T00:15:08;43;35;19
70520;PMS5003;58442;52.716;23.560;2023-04-08T00:17:10;40;34;19
70520;PMS5003;58442;52.716;23.560;2023-04-08T00:19:11;42;33;19
70520;PMS5003;58442;52.716;23.560;2023-04-08T00:21:21;34;31;19
70520;PMS5003;58442;52.716;23.560;2023-04-08T00:23:23;32;31;18
70520;PMS5003;58442;52.716;23.560;2023-04-08T00:25:24;44;36;18
70520;PMS5003;58442;52.716;23.560;2023-04-08T00:27:26;39;33;19
70520;PMS5003;58442;52.716;23.560;2023-04-08T00:29:36;39;31;13
70520;PMS5003;58442;52.716;23.560;2023-04-08T00:31:38;36;33;18
70520;PMS5003;58442;52.716;23.560;2023-04-08T00:33:40;34;30;18
70520;PMS5003;58442;52.716;23.560;2023-04-08T00:35:41;35;31;17
70520;PMS5003;58442;52.716;23.560;2023-04-08T00:37:52;33;30;17
70520;PMS5003;58442;52.716;23.560;2023-04-08T00:39:53;34;31;17
70520;PMS5003;58442;52.716;23.560;2023-04-08T00:41:55;32;30;16
70520;PMS5003;58442;52.716;23.560;2023-04-08T00:43:57;31;30;17
70520;PMS5003;58442;52.716;23.560;2023-04-08T00:46:07;29;25;16
70520;PMS5003;58442;52.716;23.560;2023-04-08T00:48:10;38;26;13
70520;PMS5003;58442;52.716;23.560;2023-04-08T00:50:12;34;22;11
70520;PMS5003;58442;52.716;23.560;2023-04-08T00:52:13;26;24;16
70520;PMS5003;58442;52.716;23.560;2023-04-08T00:54:22;23;16;12
70520;PMS5003;58442;52.716;23.560;2023-04-08T00:56:23;22;22;13
70520;PMS5003;58442;52.716;23.560;2023-04-08T00:58:25;27;23;13
70520;PMS5003;58442;52.716;23.560;2023-04-08T01:00:29;22;22;12
70520;PMS5003;58442;52.716;23.560;2023-04-08T01:05:02;21;19;10
70520;PMS5003;58442;52.716;23.560;2023-04-08T01:07:08;22;22;14
70520;PMS5003;58442;52.716;23.560;2023-04-08T01:09:17;23;22;14
70520;PMS5003;58442;52.716;23.560;2023-04-08T01:11:21;16;14;9
70520;PMS5003;58442;52.716;23.560;2023-04-08T01:13:23;22;22;11
70520;PMS5003;58442;52.716;23.560;2023-04-08T01:15:28;9;9;5
70520;PMS5003;58442;52.716;23.560;2023-04-08T01:17:31;10;10;8
70520;PMS5003;58442;52.716;23.560;2023-04-08T01:19:35;16;16;9
70520;PMS5003;58442;52.716;23.560;2023-04-08T01:21:39;8;8;5
70520;PMS5003;58442;52.716;23.560;2023-04-08T01:25:55;10;9;5
70520;PMS5003;58442;52.716;23.560;2023-04-08T01:27:58;11;11;6
70520;PMS5003;58442;52.716;23.560;2023-04-08T01:30:05;7;7;4
70520;PMS5003;58442;52.716;23.560;2023-04-08T01:32:09;5;5;4
70520;PMS5003;58442;52.716;23.560;2023-04-08T01:34:12;9;9;3
70520;PMS5003;58442;52.716;23.560;2023-04-08T01:36:15;6;6;5
70520;PMS5003;58442;52.716;23.560;2023-04-08T01:38:20;4;4;3
70520;PMS5003;58442;52.716;23.560;2023-04-08T01:40:26;5;5;4
70520;PMS5003;58442;52.716;23.560;2023-04-08T01:42:27;5;5;4
70520;PMS5003;58442;52.716;23.560;2023-04-08T01:44:30;8;6;3
70520;PMS5003;58442;52.716;23.560;2023-04-08T01:46:33;4;4;3
70520;PMS5003;58442;52.716;23.560;2023-04-08T01:48:36;6;4;4
70520;PMS5003;58442;52.716;23.560;2023-04-08T01:50:39;4;4;2
70520;PMS5003;58442;52.716;23.560;2023-04-08T01:52:43;4;4;3
70520;PMS5003;58442;52.716;23.560;2023-04-08T01:54:46;4;4;3
70520;PMS5003;58442;52.716;23.560;2023-04-08T01:56:48;2;2;2
70520;PMS5003;58442;52.716;23.560;2023-04-08T01:58:53;5;5;3
70520;PMS5003;58442;52.716;23.560;2023-04-08T02:00:58;5;5;4
70520;PMS5003;58442;52.716;23.560;2023-04-08T02:03:02;4;4;1
70520;PMS5003;58442;52.716;23.560;2023-04-08T02:05:07;3;3;2
70520;PMS5003;58442;52.716;23.560;2023-04-08T02:07:08;2;2;1
70520;PMS5003;58442;52.716;23.560;2023-04-08T02:09:11;3;3;2
70520;PMS5003;58442;52.716;23.560;2023-04-08T02:11:17;4;3;3
70520;PMS5003;58442;52.716;23.560;2023-04-08T02:13:18;5;5;4
70520;PMS5003;58442;52.716;23.560;2023-04-08T02:15:19;5;4;3
70520;PMS5003;58442;52.716;23.560;2023-04-08T02:17:30;2;2;1
70520;PMS5003;58442;52.716;23.560;2023-04-08T02:21:54;3;3;2
70520;PMS5003;58442;52.716;23.560;2023-04-08T02:24:03;5;4;3
70520;PMS5003;58442;52.716;23.560;2023-04-08T02:26:11;4;4;2
70520;PMS5003;58442;52.716;23.560;2023-04-08T02:28:14;6;4;3
70520;PMS5003;58442;52.716;23.560;2023-04-08T02:30:18;4;4;3
70520;PMS5003;58442;52.716;23.560;2023-04-08T02:32:21;6;5;4
70520;PMS5003;58442;52.716;23.560;2023-04-08T02:34:25;7;7;5
70520;PMS5003;58442;52.716;23.560;2023-04-08T02:36:27;5;5;4
70520;PMS5003;58442;52.716;23.560;2023-04-08T02:38:31;4;4;3
70520;PMS5003;58442;52.716;23.560;2023-04-08T02:40:32;6;6;4
70520;PMS5003;58442;52.716;23.560;2023-04-08T02:42:35;2;2;2
70520;PMS5003;58442;52.716;23.560;2023-04-08T02:44:36;5;5;3
70520;PMS5003;58442;52.716;23.560;2023-04-08T02:46:44;6;6;4
70520;PMS5003;58442;52.716;23.560;2023-04-08T02:48:46;12;11;6
70520;PMS5003;58442;52.716;23.560;2023-04-08T02:50:47;9;9;6
70520;PMS5003;58442;52.716;23.560;2023-04-08T02:52:49;9;9;5
70520;PMS5003;58442;52.716;23.560;2023-04-08T02:55:00;10;10;5
70520;PMS5003;58442;52.716;23.560;2023-04-08T02:57:01;10;10;6
70520;PMS5003;58442;52.716;23.560;2023-04-08T02:59:02;9;9;6
70520;PMS5003;58442;52.716;23.560;2023-04-08T03:01:04;10;9;7
70520;PMS5003;58442;52.716;23.560;2023-04-08T03:03:15;5;5;4
70520;PMS5003;58442;52.716;23.560;2023-04-08T03:05:16;9;9;6
70520;PMS5003;58442;52.716;23.560;2023-04-08T03:07:17;8;7;5
70520;PMS5003;58442;52.716;23.560;2023-04-08T03:09:19;8;8;3
70520;PMS5003;58442;52.716;23.560;2023-04-08T03:11:30;15;14;9
70520;PMS5003;58442;52.716;23.560;2023-04-08T03:13:31;10;10;8
70520;PMS5003;58442;52.716;23.560;2023-04-08T03:15:34;19;18;11
70520;PMS5003;58442;52.716;23.560;2023-04-08T03:17:36;23;18;11
70520;PMS5003;58442;52.716;23.560;2023-04-08T03:19:45;18;18;12
70520;PMS5003;58442;52.716;23.560;2023-04-08T03:21:46;20;18;11
70520;PMS5003;58442;52.716;23.560;2023-04-08T03:23:48;17;17;9
70520;PMS5003;58442;52.716;23.560;2023-04-08T03:25:49;17;16;8
70520;PMS5003;58442;52.716;23.560;2023-04-08T03:28:00;21;21;13
70520;PMS5003;58442;52.716;23.560;2023-04-08T03:30:01;26;24;15
70520;PMS5003;58442;52.716;23.560;2023-04-08T03:32:03;26;26;15
70520;PMS5003;58442;52.716;23.560;2023-04-08T03:34:04;22;20;12
70520;PMS5003;58442;52.716;23.560;2023-04-08T03:36:15;24;22;12
70520;PMS5003;58442;52.716;23.560;2023-04-08T03:38:16;10;9;6
70520;PMS5003;58442;52.716;23.560;2023-04-08T03:40:18;17;15;10
70520;PMS5003;58442;52.716;23.560;2023-04-08T03:42:19;23;21;13
70520;PMS5003;58442;52.716;23.560;2023-04-08T03:44:30;25;21;12
70520;PMS5003;58442;52.716;23.560;2023-04-08T03:46:31;29;25;12
70520;PMS5003;58442;52.716;23.560;2023-04-08T03:48:33;27;26;16
70520;PMS5003;58442;52.716;23.560;2023-04-08T03:50:34;28;23;11
70520;PMS5003;58442;52.716;23.560;2023-04-08T03:52:45;25;24;15
70520;PMS5003;58442;52.716;23.560;2023-04-08T03:54:46;41;27;13
70520;PMS5003;58442;52.716;23.560;2023-04-08T03:56:48;32;30;17
70520;PMS5003;58442;52.716;23.560;2023-04-08T03:58:50;25;25;15
70520;PMS5003;58442;52.716;23.560;2023-04-08T04:01:01;20;20;16
70520;PMS5003;58442;52.716;23.560;2023-04-08T04:03:02;29;27;16
70520;PMS5003;58442;52.716;23.560;2023-04-08T04:05:04;23;22;14
70520;PMS5003;58442;52.716;23.560;2023-04-08T04:07:06;37;26;13
70520;PMS5003;58442;52.716;23.560;2023-04-08T04:09:17;22;21;12
70520;PMS5003;58442;52.716;23.560;2023-04-08T04:11:18;12;12;7
70520;PMS5003;58442;52.716;23.560;2023-04-08T04:13:22;21;21;12
70520;PMS5003;58442;52.716;23.560;2023-04-08T04:15:23;16;16;10
70520;PMS5003;58442;52.716;23.560;2023-04-08T04:17:32;25;21;13
70520;PMS5003;58442;52.716;23.560;2023-04-08T04:19:34;26;25;15
70520;PMS5003;58442;52.716;23.560;2023-04-08T04:21:36;31;27;16
70520;PMS5003;58442;52.716;23.560;2023-04-08T04:23:37;29;27;16
70520;PMS5003;58442;52.716;23.560;2023-04-08T04:25:47;34;28;13
70520;PMS5003;58442;52.716;23.560;2023-04-08T04:27:48;32;30;15
70520;PMS5003;58442;52.716;23.560;2023-04-08T04:29:50;29;27;17
70520;PMS5003;58442;52.716;23.560;2023-04-08T04:31:51;34;24;13
70520;PMS5003;58442;52.716;23.560;2023-04-08T04:34:02;22;22;11
70520;PMS5003;58442;52.716;23.560;2023-04-08T04:36:04;24;24;15
70520;PMS5003;58442;52.716;23.560;2023-04-08T04:38:05;28;28;13
70520;PMS5003;58442;52.716;23.560;2023-04-08T04:40:12;24;23;11
70520;PMS5003;58442;52.716;23.560;2023-04-08T04:42:17;42;31;16
70520;PMS5003;58442;52.716;23.560;2023-04-08T04:44:19;42;36;21
70520;PMS5003;58442;52.716;23.560;2023-04-08T04:46:20;40;36;20
70520;PMS5003;58442;52.716;23.560;2023-04-08T04:48:22;41;31;20
70520;PMS5003;58442;52.716;23.560;2023-04-08T04:50:32;46;36;22
70520;PMS5003;58442;52.716;23.560;2023-04-08T04:52:35;47;35;21
70520;PMS5003;58442;52.716;23.560;2023-04-08T04:54:36;54;41;25
70520;PMS5003;58442;52.716;23.560;2023-04-08T04:56:38;45;35;23
70520;PMS5003;58442;52.716;23.560;2023-04-08T04:58:48;55;44;24
70520;PMS5003;58442;52.716;23.560;2023-04-08T05:00:49;51;40;25
70520;PMS5003;58442;52.716;23.560;2023-04-08T05:02:50;51;41;24
70520;PMS5003;58442;52.716;23.560;2023-04-08T05:04:52;43;35;22
70520;PMS5003;58442;52.716;23.560;2023-04-08T05:07:03;56;45;25
70520;PMS5003;58442;52.716;23.560;2023-04-08T05:09:04;46;36;21
70520;PMS5003;58442;52.716;23.560;2023-04-08T05:11:09;58;44;26
70520;PMS5003;58442;52.716;23.560;2023-04-08T05:13:11;49;39;23
70520;PMS5003;58442;52.716;23.560;2023-04-08T05:15:18;54;39;25
70520;PMS5003;58442;52.716;23.560;2023-04-08T05:17:20;61;46;26
70520;PMS5003;58442;52.716;23.560;2023-04-08T05:19:22;57;45;28
70520;PMS5003;58442;52.716;23.560;2023-04-08T05:21:23;59;47;27
70520;PMS5003;58442;52.716;23.560;2023-04-08T05:23:33;59;45;27
70520;PMS5003;58442;52.716;23.560;2023-04-08T05:25:35;57;43;27
70520;PMS5003;58442;52.716;23.560;2023-04-08T05:27:36;58;45;27
70520;PMS5003;58442;52.716;23.560;2023-04-08T05:29:40;61;49;27
70520;PMS5003;58442;52.716;23.560;2023-04-08T05:31:48;60;48;27
70520;PMS5003;58442;52.716;23.560;2023-04-08T05:33:50;58;45;27
70520;PMS5003;58442;52.716;23.560;2023-04-08T05:35:51;63;51;31
70520;PMS5003;58442;52.716;23.560;2023-04-08T05:37:53;43;35;9
70520;PMS5003;58442;52.716;23.560;2023-04-08T05:40:04;68;51;29
70520;PMS5003;58442;52.716;23.560;2023-04-08T05:42:06;73;52;32
70520;PMS5003;58442;52.716;23.560;2023-04-08T05:44:07;74;55;32
70520;PMS5003;58442;52.716;23.560;2023-04-08T05:46:09;74;58;33
70520;PMS5003;58442;52.716;23.560;2023-04-08T05:48:18;76;61;34
70520;PMS5003;58442;52.716;23.560;2023-04-08T05:50:20;71;56;34
70520;PMS5003;58442;52.716;23.560;2023-04-08T05:52:22;75;62;33
70520;PMS5003;58442;52.716;23.560;2023-04-08T05:54:23;78;63;33
70520;PMS5003;58442;52.716;23.560;2023-04-08T05:56:34;75;59;34
70520;PMS5003;58442;52.716;23.560;2023-04-08T05:58:36;75;59;33
70520;PMS5003;58442;52.716;23.560;2023-04-08T06:00:37;73;58;35
70520;PMS5003;58442;52.716;23.560;2023-04-08T06:02:39;77;59;32
70520;PMS5003;58442;52.716;23.560;2023-04-08T06:04:49;82;55;34
70520;PMS5003;58442;52.716;23.560;2023-04-08T06:06:50;82;71;35
70520;PMS5003;58442;52.716;23.560;2023-04-08T06:08:52;69;55;34
70520;PMS5003;58442;52.716;23.560;2023-04-08T06:10:53;73;56;32
70520;PMS5003;58442;52.716;23.560;2023-04-08T06:13:04;79;56;34
70520;PMS5003;58442;52.716;23.560;2023-04-08T06:15:06;73;58;32
70520;PMS5003;58442;52.716;23.560;2023-04-08T06:17:08;54;41;25
70520;PMS5003;58442;52.716;23.560;2023-04-08T06:19:09;73;56;34
70520;PMS5003;58442;52.716;23.560;2023-04-08T06:21:19;78;61;33
70520;PMS5003;58442;52.716;23.560;2023-04-08T06:23:21;81;56;33
70520;PMS5003;58442;52.716;23.560;2023-04-08T06:25:22;74;66;36
70520;PMS5003;58442;52.716;23.560;2023-04-08T06:27:24;78;53;32
70520;PMS5003;58442;52.716;23.560;2023-04-08T06:29:34;72;57;34
70520;PMS5003;58442;52.716;23.560;2023-04-08T06:31:36;75;58;34
70520;PMS5003;58442;52.716;23.560;2023-04-08T06:33:37;71;59;34
70520;PMS5003;58442;52.716;23.560;2023-04-08T06:35:39;73;58;33
70520;PMS5003;58442;52.716;23.560;2023-04-08T06:37:50;75;56;32
70520;PMS5003;58442;52.716;23.560;2023-04-08T06:39:51;77;64;35
70520;PMS5003;58442;52.716;23.560;2023-04-08T06:41:53;79;65;35
70520;PMS5003;58442;52.716;23.560;2023-04-08T06:43:54;84;61;36
70520;PMS5003;58442;52.716;23.560;2023-04-08T06:46:05;75;66;35
70520;PMS5003;58442;52.716;23.560;2023-04-08T06:48:07;76;62;35
70520;PMS5003;58442;52.716;23.560;2023-04-08T06:50:09;107;87;48
70520;PMS5003;58442;52.716;23.560;2023-04-08T06:52:10;102;91;43
70520;PMS5003;58442;52.716;23.560;2023-04-08T06:54:20;139;105;55
70520;PMS5003;58442;52.716;23.560;2023-04-08T06:56:22;132;110;60
70520;PMS5003;58442;52.716;23.560;2023-04-08T06:58:26;148;122;62
70520;PMS5003;58442;52.716;23.560;2023-04-08T07:00:27;155;119;66
70520;PMS5003;58442;52.716;23.560;2023-04-08T07:02:35;169;126;63
70520;PMS5003;58442;52.716;23.560;2023-04-08T07:04:37;140;118;57
70520;PMS5003;58442;52.716;23.560;2023-04-08T07:06:38;157;112;57
70520;PMS5003;58442;52.716;23.560;2023-04-08T07:08:40;136;107;60
70520;PMS5003;58442;52.716;23.560;2023-04-08T07:10:51;156;121;62
70520;PMS5003;58442;52.716;23.560;2023-04-08T07:12:53;132;104;56
70520;PMS5003;58442;52.716;23.560;2023-04-08T07:14:55;158;116;65
70520;PMS5003;58442;52.716;23.560;2023-04-08T07:16:56;137;111;61
70520;PMS5003;58442;52.716;23.560;2023-04-08T07:19:06;146;127;61
70520;PMS5003;58442;52.716;23.560;2023-04-08T07:21:08;151;123;62
70520;PMS5003;58442;52.716;23.560;2023-04-08T07:23:10;143;117;66
70520;PMS5003;58442;52.716;23.560;2023-04-08T07:25:11;137;117;62
70520;PMS5003;58442;52.716;23.560;2023-04-08T07:27:21;116;104;50
70520;PMS5003;58442;52.716;23.560;2023-04-08T07:29:23;96;69;37
70520;PMS5003;58442;52.716;23.560;2023-04-08T07:31:24;72;50;31
70520;PMS5003;58442;52.716;23.560;2023-04-08T07:33:26;75;58;33
70520;PMS5003;58442;52.716;23.560;2023-04-08T07:35:37;60;45;27
70520;PMS5003;58442;52.716;23.560;2023-04-08T07:37:38;63;45;28
70520;PMS5003;58442;52.716;23.560;2023-04-08T07:39:40;52;40;23
70520;PMS5003;58442;52.716;23.560;2023-04-08T07:41:41;32;31;18
70520;PMS5003;58442;52.716;23.560;2023-04-08T07:43:52;32;30;17
70520;PMS5003;58442;52.716;23.560;2023-04-08T07:45:55;29;28;17
70520;PMS5003;58442;52.716;23.560;2023-04-08T07:48:04;21;20;12
70520;PMS5003;58442;52.716;23.560;2023-04-08T07:50:07;22;22;15
70520;PMS5003;58442;52.716;23.560;2023-04-08T07:52:08;23;23;15
70520;PMS5003;58442;52.716;23.560;2023-04-08T07:54:10;21;21;10
70520;PMS5003;58442;52.716;23.560;2023-04-08T07:56:16;19;18;12
70520;PMS5003;58442;52.716;23.560;2023-04-08T07:58:18;17;16;10
70520;PMS5003;58442;52.716;23.560;2023-04-08T08:00:23;18;17;9
70520;PMS5003;58442;52.716;23.560;2023-04-08T08:02:25;14;14;9
70520;PMS5003;58442;52.716;23.560;2023-04-08T08:04:26;14;14;8
70520;PMS5003;58442;52.716;23.560;2023-04-08T08:06:28;13;13;9
70520;PMS5003;58442;52.716;23.560;2023-04-08T08:08:38;12;12;8
70520;PMS5003;58442;52.716;23.560;2023-04-08T08:10:40;7;7;5
70520;PMS5003;58442;52.716;23.560;2023-04-08T08:12:41;13;13;8
70520;PMS5003;58442;52.716;23.560;2023-04-08T08:14:43;13;13;9
70520;PMS5003;58442;52.716;23.560;2023-04-08T08:16:53;7;7;5
70520;PMS5003;58442;52.716;23.560;2023-04-08T08:18:55;9;9;5
70520;PMS5003;58442;52.716;23.560;2023-04-08T08:20:56;8;8;5
70520;PMS5003;58442;52.716;23.560;2023-04-08T08:22:57;10;10;8
70520;PMS5003;58442;52.716;23.560;2023-04-08T08:25:08;12;11;9
70520;PMS5003;58442;52.716;23.560;2023-04-08T08:27:10;11;11;9
70520;PMS5003;58442;52.716;23.560;2023-04-08T08:29:11;11;11;7
70520;PMS5003;58442;52.716;23.560;2023-04-08T08:31:12;9;9;6
70520;PMS5003;58442;52.716;23.560;2023-04-08T08:33:23;9;9;6
70520;PMS5003;58442;52.716;23.560;2023-04-08T08:35:27;8;8;6
70520;PMS5003;58442;52.716;23.560;2023-04-08T08:37:29;10;10;7
70520;PMS5003;58442;52.716;23.560;2023-04-08T08:39:30;8;8;7
70520;PMS5003;58442;52.716;23.560;2023-04-08T08:41:38;8;8;5
70520;PMS5003;58442;52.716;23.560;2023-04-08T08:43:41;9;9;7
70520;PMS5003;58442;52.716;23.560;2023-04-08T08:45:44;7;7;6
70520;PMS5003;58442;52.716;23.560;2023-04-08T08:47:46;9;9;7
70520;PMS5003;58442;52.716;23.560;2023-04-08T08:49:52;8;8;6
70520;PMS5003;58442;52.716;23.560;2023-04-08T08:51:54;7;7;4
70520;PMS5003;58442;52.716;23.560;2023-04-08T08:53:56;7;7;5
70520;PMS5003;58442;52.716;23.560;2023-04-08T08:56:01;8;8;6
70520;PMS5003;58442;52.716;23.560;2023-04-08T08:58:07;6;6;4
70520;PMS5003;58442;52.716;23.560;2023-04-08T09:00:10;6;6;5
70520;PMS5003;58442;52.716;23.560;2023-04-08T09:04:27;8;8;6
70520;PMS5003;58442;52.716;23.560;2023-04-08T09:06:29;7;7;5
70520;PMS5003;58442;52.716;23.560;2023-04-08T09:08:34;6;6;5
70520;PMS5003;58442;52.716;23.560;2023-04-08T09:10:37;8;8;6
70520;PMS5003;58442;52.716;23.560;2023-04-08T09:15:01;7;7;4
70520;PMS5003;58442;52.716;23.560;2023-04-08T09:17:04;8;8;6
70520;PMS5003;58442;52.716;23.560;2023-04-08T09:19:09;8;8;6
70520;PMS5003;58442;52.716;23.560;2023-04-08T09:21:12;6;6;5
70520;PMS5003;58442;52.716;23.560;2023-04-08T09:23:15;6;6;5
70520;PMS5003;58442;52.716;23.560;2023-04-08T09:29:35;7;7;5
70520;PMS5003;58442;52.716;23.560;2023-04-08T09:31:38;8;8;7
70520;PMS5003;58442;52.716;23.560;2023-04-08T09:33:42;7;7;6
70520;PMS5003;58442;52.716;23.560;2023-04-08T09:35:44;8;8;5
70520;PMS5003;58442;52.716;23.560;2023-04-08T09:37:48;8;8;6
70520;PMS5003;58442;52.716;23.560;2023-04-08T09:39:50;11;11;6
70520;PMS5003;58442;52.716;23.560;2023-04-08T09:41:54;9;9;5
70520;PMS5003;58442;52.716;23.560;2023-04-08T09:44:02;8;8;6
70520;PMS5003;58442;52.716;23.560;2023-04-08T09:46:08;11;11;7
70520;PMS5003;58442;52.716;23.560;2023-04-08T09:48:14;8;8;5
70520;PMS5003;58442;52.716;23.560;2023-04-08T09:50:19;9;9;6
70520;PMS5003;58442;52.716;23.560;2023-04-08T09:52:33;6;6;6
70520;PMS5003;58442;52.716;23.560;2023-04-08T09:54:57;9;9;6
70520;PMS5003;58442;52.716;23.560;2023-04-08T09:57:04;6;6;6
70520;PMS5003;58442;52.716;23.560;2023-04-08T09:59:15;8;8;5
70520;PMS5003;58442;52.716;23.560;2023-04-08T10:01:43;7;7;5
70520;PMS5003;58442;52.716;23.560;2023-04-08T10:05:49;6;6;5
70520;PMS5003;58442;52.716;23.560;2023-04-08T10:07:59;9;9;7
70520;PMS5003;58442;52.716;23.560;2023-04-08T10:10:01;4;4;3
70520;PMS5003;58442;52.716;23.560;2023-04-08T10:12:03;8;8;6
70520;PMS5003;58442;52.716;23.560;2023-04-08T10:14:05;4;4;4
70520;PMS5003;58442;52.716;23.560;2023-04-08T10:16:17;6;6;6
70520;PMS5003;58442;52.716;23.560;2023-04-08T10:18:35;8;8;6
70520;PMS5003;58442;52.716;23.560;2023-04-08T10:20:41;9;9;7
70520;PMS5003;58442;52.716;23.560;2023-04-08T10:22:47;7;7;6
70520;PMS5003;58442;52.716;23.560;2023-04-08T10:27:02;8;8;6
70520;PMS5003;58442;52.716;23.560;2023-04-08T10:31:38;9;9;5
70520;PMS5003;58442;52.716;23.560;2023-04-08T10:33:40;7;7;5
70520;PMS5003;58442;52.716;23.560;2023-04-08T10:35:42;11;11;7
70520;PMS5003;58442;52.716;23.560;2023-04-08T10:37:47;7;7;6
70520;PMS5003;58442;52.716;23.560;2023-04-08T10:39:49;8;8;6
70520;PMS5003;58442;52.716;23.560;2023-04-08T10:41:53;8;8;7
70520;PMS5003;58442;52.716;23.560;2023-04-08T10:43:56;6;6;4
70520;PMS5003;58442;52.716;23.560;2023-04-08T10:45:57;4;4;3
70520;PMS5003;58442;52.716;23.560;2023-04-08T10:50:23;6;6;5
70520;PMS5003;58442;52.716;23.560;2023-04-08T10:52:25;7;7;5
70520;PMS5003;58442;52.716;23.560;2023-04-08T10:54:27;6;6;3
70520;PMS5003;58442;52.716;23.560;2023-04-08T10:56:29;7;7;5
70520;PMS5003;58442;52.716;23.560;2023-04-08T11:01:03;7;7;5
70520;PMS5003;58442;52.716;23.560;2023-04-08T11:03:07;5;5;4
70520;PMS5003;58442;52.716;23.560;2023-04-08T11:05:10;9;9;5
70520;PMS5003;58442;52.716;23.560;2023-04-08T11:07:12;5;5;4
70520;PMS5003;58442;52.716;23.560;2023-04-08T11:09:15;5;5;3
70520;PMS5003;58442;52.716;23.560;2023-04-08T11:11:17;6;6;5
70520;PMS5003;58442;52.716;23.560;2023-04-08T11:13:19;6;6;5
70520;PMS5003;58442;52.716;23.560;2023-04-08T11:15:23;5;5;5
70520;PMS5003;58442;52.716;23.560;2023-04-08T11:17:30;6;6;4
70520;PMS5003;58442;52.716;23.560;2023-04-08T11:19:34;6;6;5
70520;PMS5003;58442;52.716;23.560;2023-04-08T11:21:36;6;6;4
70520;PMS5003;58442;52.716;23.560;2023-04-08T11:23:38;6;6;4
70520;PMS5003;58442;52.716;23.560;2023-04-08T11:25:45;6;6;5
70520;PMS5003;58442;52.716;23.560;2023-04-08T11:27:47;5;5;4
70520;PMS5003;58442;52.716;23.560;2023-04-08T11:29:53;4;4;3
70520;PMS5003;58442;52.716;23.560;2023-04-08T11:31:56;3;3;2
70520;PMS5003;58442;52.716;23.560;2023-04-08T11:33:59;4;4;2
70520;PMS5003;58442;52.716;23.560;2023-04-08T11:36:00;4;4;3
70520;PMS5003;58442;52.716;23.560;2023-04-08T11:38:08;5;5;5
70520;PMS5003;58442;52.716;23.560;2023-04-08T11:40:10;5;5;3
70520;PMS5003;58442;52.716;23.560;2023-04-08T11:44:35;4;4;4
70520;PMS5003;58442;52.716;23.560;2023-04-08T11:46:36;4;4;3
70520;PMS5003;58442;52.716;23.560;2023-04-08T11:48:55;7;7;4
70520;PMS5003;58442;52.716;23.560;2023-04-08T11:55:25;3;3;2
70520;PMS5003;58442;52.716;23.560;2023-04-08T11:57:32;7;7;5
70520;PMS5003;58442;52.716;23.560;2023-04-08T11:59:34;7;7;4
70520;PMS5003;58442;52.716;23.560;2023-04-08T12:01:36;6;6;4
70520;PMS5003;58442;52.716;23.560;2023-04-08T12:03:37;7;7;5
70520;PMS5003;58442;52.716;23.560;2023-04-08T12:05:47;5;5;5
70520;PMS5003;58442;52.716;23.560;2023-04-08T12:07:48;6;6;5
70520;PMS5003;58442;52.716;23.560;2023-04-08T12:09:50;5;5;4
70520;PMS5003;58442;52.716;23.560;2023-04-08T12:11:52;6;6;5
70520;PMS5003;58442;52.716;23.560;2023-04-08T12:14:02;5;5;5
70520;PMS5003;58442;52.716;23.560;2023-04-08T12:16:04;5;5;4
70520;PMS5003;58442;52.716;23.560;2023-04-08T12:18:06;3;3;3
70520;PMS5003;58442;52.716;23.560;2023-04-08T12:20:08;4;4;2
70520;PMS5003;58442;52.716;23.560;2023-04-08T12:22:17;3;3;3
70520;PMS5003;58442;52.716;23.560;2023-04-08T12:24:18;4;4;3
70520;PMS5003;58442;52.716;23.560;2023-04-08T12:26:20;4;4;3
70520;PMS5003;58442;52.716;23.560;2023-04-08T12:28:22;7;7;5
70520;PMS5003;58442;52.716;23.560;2023-04-08T12:30:31;3;3;2
70520;PMS5003;58442;52.716;23.560;2023-04-08T12:32:33;6;6;4
70520;PMS5003;58442;52.716;23.560;2023-04-08T12:34:34;4;4;3
70520;PMS5003;58442;52.716;23.560;2023-04-08T12:36:36;7;7;5
70520;PMS5003;58442;52.716;23.560;2023-04-08T12:38:46;5;5;5
70520;PMS5003;58442;52.716;23.560;2023-04-08T12:40:48;6;6;4
70520;PMS5003;58442;52.716;23.560;2023-04-08T12:42:49;7;7;5
70520;PMS5003;58442;52.716;23.560;2023-04-08T12:44:51;8;8;5
70520;PMS5003;58442;52.716;23.560;2023-04-08T12:47:01;7;7;5
70520;PMS5003;58442;52.716;23.560;2023-04-08T12:49:03;5;5;4
70520;PMS5003;58442;52.716;23.560;2023-04-08T12:51:04;7;7;6
70520;PMS5003;58442;52.716;23.560;2023-04-08T12:53:06;5;5;5
70520;PMS5003;58442;52.716;23.560;2023-04-08T12:55:16;8;8;6
70520;PMS5003;58442;52.716;23.560;2023-04-08T12:57:18;7;7;4
70520;PMS5003;58442;52.716;23.560;2023-04-08T12:59:19;4;4;4
70520;PMS5003;58442;52.716;23.560;2023-04-08T13:01:21;9;9;6
70520;PMS5003;58442;52.716;23.560;2023-04-08T13:03:31;7;7;6
70520;PMS5003;58442;52.716;23.560;2023-04-08T13:05:33;7;7;4
70520;PMS5003;58442;52.716;23.560;2023-04-08T13:07:34;2;2;1
70520;PMS5003;58442;52.716;23.560;2023-04-08T13:09:36;8;8;5
70520;PMS5003;58442;52.716;23.560;2023-04-08T13:11:45;6;6;4
70520;PMS5003;58442;52.716;23.560;2023-04-08T13:13:47;4;4;4
70520;PMS5003;58442;52.716;23.560;2023-04-08T13:15:49;7;7;6
70520;PMS5003;58442;52.716;23.560;2023-04-08T13:17:52;6;6;5
70520;PMS5003;58442;52.716;23.560;2023-04-08T13:20:00;6;6;4
70520;PMS5003;58442;52.716;23.560;2023-04-08T13:22:02;4;4;3
70520;PMS5003;58442;52.716;23.560;2023-04-08T13:24:04;8;8;6
70520;PMS5003;58442;52.716;23.560;2023-04-08T13:26:06;5;5;4
70520;PMS5003;58442;52.716;23.560;2023-04-08T13:28:15;6;6;5
70520;PMS5003;58442;52.716;23.560;2023-04-08T13:30:17;4;4;4
70520;PMS5003;58442;52.716;23.560;2023-04-08T13:32:19;6;6;6
70520;PMS5003;58442;52.716;23.560;2023-04-08T13:34:20;10;10;5
70520;PMS5003;58442;52.716;23.560;2023-04-08T13:36:30;29;29;14
70520;PMS5003;58442;52.716;23.560;2023-04-08T13:38:32;25;24;15
70520;PMS5003;58442;52.716;23.560;2023-04-08T13:40:33;11;10;6
70520;PMS5003;58442;52.716;23.560;2023-04-08T13:42:34;10;10;7
70520;PMS5003;58442;52.716;23.560;2023-04-08T13:44:45;5;5;4
70520;PMS5003;58442;52.716;23.560;2023-04-08T13:46:46;9;9;6
70520;PMS5003;58442;52.716;23.560;2023-04-08T13:48:47;8;8;4
70520;PMS5003;58442;52.716;23.560;2023-04-08T13:50:49;8;4;3
70520;PMS5003;58442;52.716;23.560;2023-04-08T13:53:00;6;6;4
70520;PMS5003;58442;52.716;23.560;2023-04-08T13:55:02;8;8;5